sensor_id;sensor_type;location;lat;lon;timestamp;pressure;altitude;pressure_sealevel;temperature;humidity
61287;BME280;56412;53.148;8.204;2022-08-25T00:02:06;101952.31;;;26.25;36.86
61287;BME280;56412;53.148;8.204;2022-08-25T00:04:32;101952.31;;;26.25;36.66
61287;BME280;56412;53.148;8.204;2022-08-25T00:06:59;101953.31;;;26.24;36.65
61287;BME280;56412;53.148;8.204;2022-08-25T00:09:25;101952.81;;;26.21;36.85
61287;BME280;56412;53.148;8.204;2022-08-25T00:11:51;101953.66;;;26.21;37.01
61287;BME280;56412;53.148;8.204;2022-08-25T00:14:19;101952.16;;;26.19;37.12
61287;BME280;56412;53.148;8.204;2022-08-25T00:16:46;101949.00;;;26.15;36.93
61287;BME280;56412;53.148;8.204;2022-08-25T00:19:14;101944.50;;;26.16;36.89
61287;BME280;56412;53.148;8.204;2022-08-25T00:21:43;101936.03;;;26.12;37.43
61287;BME280;56412;53.148;8.204;2022-08-25T00:24:09;101943.66;;;26.07;37.17
61287;BME280;56412;53.148;8.204;2022-08-25T00:26:37;101944.13;;;26.02;37.26
61287;BME280;56412;53.148;8.204;2022-08-25T00:29:07;101939.13;;;25.99;37.13
61287;BME280;56412;53.148;8.204;2022-08-25T00:31:33;101941.78;;;25.99;37.33
61287;BME280;56412;53.148;8.204;2022-08-25T00:33:59;101934.97;;;25.97;37.58
61287;BME280;56412;53.148;8.204;2022-08-25T00:36:25;101945.25;;;25.92;37.38
61287;BME280;56412;53.148;8.204;2022-08-25T00:38:52;101940.41;;;25.87;37.58
61287;BME280;56412;53.148;8.204;2022-08-25T00:41:20;101945.34;;;25.82;37.76
61287;BME280;56412;53.148;8.204;2022-08-25T00:43:50;101940.34;;;25.79;37.64
61287;BME280;56412;53.148;8.204;2022-08-25T00:46:23;101942.66;;;25.74;38.11
61287;BME280;56412;53.148;8.204;2022-08-25T00:48:55;101945.78;;;25.69;37.84
61287;BME280;56412;53.148;8.204;2022-08-25T00:51:26;101953.88;;;25.68;38.08
61287;BME280;56412;53.148;8.204;2022-08-25T00:53:58;101944.44;;;25.65;38.15
61287;BME280;56412;53.148;8.204;2022-08-25T00:56:24;101951.84;;;25.61;37.92
61287;BME280;56412;53.148;8.204;2022-08-25T00:58:52;101912.94;;;25.36;38.36
61287;BME280;56412;53.148;8.204;2022-08-25T01:01:17;101943.19;;;25.51;38.20
61287;BME280;56412;53.148;8.204;2022-08-25T01:03:43;101961.38;;;25.46;38.71
61287;BME280;56412;53.148;8.204;2022-08-25T01:06:09;101954.75;;;25.42;38.38
61287;BME280;56412;53.148;8.204;2022-08-25T01:08:35;101962.00;;;25.40;38.77
61287;BME280;56412;53.148;8.204;2022-08-25T01:11:03;101958.03;;;25.36;39.00
61287;BME280;56412;53.148;8.204;2022-08-25T01:13:38;101952.34;;;25.31;38.82
61287;BME280;56412;53.148;8.204;2022-08-25T01:16:09;101959.78;;;25.27;38.90
61287;BME280;56412;53.148;8.204;2022-08-25T01:18:47;101953.97;;;25.24;38.84
61287;BME280;56412;53.148;8.204;2022-08-25T01:21:16;101957.59;;;25.23;39.07
61287;BME280;56412;53.148;8.204;2022-08-25T01:23:43;101953.59;;;25.19;39.13
61287;BME280;56412;53.148;8.204;2022-08-25T01:26:11;101960.03;;;25.16;39.17
61287;BME280;56412;53.148;8.204;2022-08-25T01:28:40;101953.72;;;25.17;39.21
61287;BME280;56412;53.148;8.204;2022-08-25T01:31:45;101954.31;;;25.11;39.25
61287;BME280;56412;53.148;8.204;2022-08-25T01:34:31;101953.94;;;25.06;39.51
61287;BME280;56412;53.148;8.204;2022-08-25T01:36:58;101952.75;;;25.00;39.57
61287;BME280;56412;53.148;8.204;2022-08-25T01:39:25;101944.44;;;24.95;39.78
61287;BME280;56412;53.148;8.204;2022-08-25T01:50:27;101964.19;;;24.83;40.29
61287;BME280;56412;53.148;8.204;2022-08-25T01:55:53;101959.78;;;24.74;40.60
61287;BME280;56412;53.148;8.204;2022-08-25T02:01:41;101965.38;;;24.70;40.65
61287;BME280;56412;53.148;8.204;2022-08-25T02:04:06;101960.56;;;24.66;40.59
61287;BME280;56412;53.148;8.204;2022-08-25T02:06:32;101953.06;;;24.61;40.76
61287;BME280;56412;53.148;8.204;2022-08-25T02:08:59;101958.81;;;24.57;40.89
61287;BME280;56412;53.148;8.204;2022-08-25T02:11:29;101951.47;;;24.51;41.01
61287;BME280;56412;53.148;8.204;2022-08-25T02:13:55;101955.25;;;24.48;41.05
61287;BME280;56412;53.148;8.204;2022-08-25T02:16:24;101954.84;;;24.43;41.42
61287;BME280;56412;53.148;8.204;2022-08-25T02:19:11;101959.72;;;24.38;41.66
61287;BME280;56412;53.148;8.204;2022-08-25T02:21:37;101960.03;;;24.35;41.77
61287;BME280;56412;53.148;8.204;2022-08-25T02:24:03;101953.38;;;24.31;41.79
61287;BME280;56412;53.148;8.204;2022-08-25T02:26:30;101958.13;;;24.27;41.66
61287;BME280;56412;53.148;8.204;2022-08-25T02:28:55;101953.97;;;24.24;42.00
61287;BME280;56412;53.148;8.204;2022-08-25T02:31:21;101950.63;;;24.22;41.82
61287;BME280;56412;53.148;8.204;2022-08-25T02:33:49;101954.56;;;24.18;41.79
61287;BME280;56412;53.148;8.204;2022-08-25T02:36:15;101950.69;;;24.13;42.29
61287;BME280;56412;53.148;8.204;2022-08-25T02:38:41;101955.44;;;24.09;42.33
61287;BME280;56412;53.148;8.204;2022-08-25T02:41:09;101950.72;;;24.03;42.31
61287;BME280;56412;53.148;8.204;2022-08-25T02:43:43;101956.00;;;24.03;42.36
61287;BME280;56412;53.148;8.204;2022-08-25T02:46:09;101956.31;;;24.00;42.54
61287;BME280;56412;53.148;8.204;2022-08-25T02:48:37;101959.13;;;23.98;42.76
61287;BME280;56412;53.148;8.204;2022-08-25T02:51:03;101963.88;;;23.95;42.56
61287;BME280;56412;53.148;8.204;2022-08-25T02:53:30;101961.66;;;23.90;42.94
61287;BME280;56412;53.148;8.204;2022-08-25T02:55:57;101962.94;;;23.86;42.73
61287;BME280;56412;53.148;8.204;2022-08-25T02:58:23;101956.13;;;23.84;43.02
61287;BME280;56412;53.148;8.204;2022-08-25T03:00:49;101963.22;;;23.83;43.08
61287;BME280;56412;53.148;8.204;2022-08-25T03:03:15;101962.66;;;23.79;43.35
61287;BME280;56412;53.148;8.204;2022-08-25T03:05:42;101957.66;;;23.76;43.38
61287;BME280;56412;53.148;8.204;2022-08-25T03:08:08;101958.94;;;23.72;43.34
61287;BME280;56412;53.148;8.204;2022-08-25T03:10:35;101960.88;;;23.70;43.45
61287;BME280;56412;53.148;8.204;2022-08-25T03:13:01;101956.56;;;23.69;43.66
61287;BME280;56412;53.148;8.204;2022-08-25T03:15:27;101947.25;;;23.65;43.70
61287;BME280;56412;53.148;8.204;2022-08-25T03:17:53;101955.31;;;23.64;43.76
61287;BME280;56412;53.148;8.204;2022-08-25T03:20:20;101947.81;;;23.59;43.90
61287;BME280;56412;53.148;8.204;2022-08-25T03:22:46;101947.94;;;23.57;43.57
61287;BME280;56412;53.148;8.204;2022-08-25T03:25:12;101952.41;;;23.57;43.75
61287;BME280;56412;53.148;8.204;2022-08-25T03:27:57;101945.59;;;23.54;43.79
61287;BME280;56412;53.148;8.204;2022-08-25T03:30:22;101940.59;;;23.51;44.21
61287;BME280;56412;53.148;8.204;2022-08-25T03:32:48;101933.78;;;23.49;44.00
61287;BME280;56412;53.148;8.204;2022-08-25T03:35:13;101932.25;;;23.46;44.11
61287;BME280;56412;53.148;8.204;2022-08-25T03:37:39;101941.19;;;23.45;44.48
61287;BME280;56412;53.148;8.204;2022-08-25T03:40:05;101931.72;;;23.43;44.39
61287;BME280;56412;53.148;8.204;2022-08-25T03:42:33;101938.94;;;23.41;44.40
61287;BME280;56412;53.148;8.204;2022-08-25T03:45:00;101929.66;;;23.37;44.66
61287;BME280;56412;53.148;8.204;2022-08-25T03:47:28;101935.06;;;23.35;44.86
61287;BME280;56412;53.148;8.204;2022-08-25T03:49:55;101932.56;;;23.33;44.86
61287;BME280;56412;53.148;8.204;2022-08-25T03:52:20;101935.22;;;23.33;44.58
61287;BME280;56412;53.148;8.204;2022-08-25T03:54:45;101934.50;;;23.31;44.96
61287;BME280;56412;53.148;8.204;2022-08-25T03:57:11;101934.81;;;23.28;45.08
61287;BME280;56412;53.148;8.204;2022-08-25T03:59:36;101932.44;;;23.25;45.08
61287;BME280;56412;53.148;8.204;2022-08-25T04:02:04;101938.00;;;23.22;45.25
61287;BME280;56412;53.148;8.204;2022-08-25T04:04:31;101937.47;;;23.19;45.20
61287;BME280;56412;53.148;8.204;2022-08-25T04:06:56;101937.59;;;23.17;45.47
61287;BME280;56412;53.148;8.204;2022-08-25T04:09:22;101928.00;;;23.16;45.35
61287;BME280;56412;53.148;8.204;2022-08-25T04:11:48;101936.06;;;23.15;45.55
61287;BME280;56412;53.148;8.204;2022-08-25T04:14:14;101927.31;;;23.14;45.39
61287;BME280;56412;53.148;8.204;2022-08-25T04:16:39;101930.94;;;23.13;45.38
61287;BME280;56412;53.148;8.204;2022-08-25T04:19:05;101926.63;;;23.12;45.52
61287;BME280;56412;53.148;8.204;2022-08-25T04:21:33;101933.88;;;23.10;45.78
61287;BME280;56412;53.148;8.204;2022-08-25T04:23:59;101929.69;;;23.07;45.58
61287;BME280;56412;53.148;8.204;2022-08-25T04:26:26;101926.50;;;23.04;46.22
61287;BME280;56412;53.148;8.204;2022-08-25T04:28:53;101922.03;;;23.04;45.90
61287;BME280;56412;53.148;8.204;2022-08-25T04:31:21;101928.16;;;23.05;46.39
61287;BME280;56412;53.148;8.204;2022-08-25T04:33:47;101916.59;;;23.06;45.97
61287;BME280;56412;53.148;8.204;2022-08-25T04:36:13;101918.41;;;23.05;46.34
61287;BME280;56412;53.148;8.204;2022-08-25T04:38:41;101916.75;;;23.04;46.43
61287;BME280;56412;53.148;8.204;2022-08-25T04:41:09;101912.75;;;23.00;46.75
61287;BME280;56412;53.148;8.204;2022-08-25T04:43:36;101910.22;;;22.99;46.60
61287;BME280;56412;53.148;8.204;2022-08-25T04:46:06;101914.53;;;23.00;46.73
61287;BME280;56412;53.148;8.204;2022-08-25T04:48:34;101911.75;;;23.01;46.95
61287;BME280;56412;53.148;8.204;2022-08-25T04:51:03;101909.66;;;23.05;47.04
61287;BME280;56412;53.148;8.204;2022-08-25T04:53:33;101910.78;;;23.12;46.87
61287;BME280;56412;53.148;8.204;2022-08-25T04:55:59;101913.25;;;23.13;47.06
61287;BME280;56412;53.148;8.204;2022-08-25T04:58:24;101923.84;;;23.13;47.00
61287;BME280;56412;53.148;8.204;2022-08-25T05:00:50;101925.66;;;23.13;46.91
61287;BME280;56412;53.148;8.204;2022-08-25T05:03:16;101925.38;;;23.16;47.05
61287;BME280;56412;53.148;8.204;2022-08-25T05:05:41;101860.31;;;22.86;47.03
61287;BME280;56412;53.148;8.204;2022-08-25T05:08:06;101917.28;;;23.18;46.98
61287;BME280;56412;53.148;8.204;2022-08-25T05:10:32;101908.69;;;23.16;47.53
61287;BME280;56412;53.148;8.204;2022-08-25T05:12:58;101912.41;;;23.23;47.34
61287;BME280;56412;53.148;8.204;2022-08-25T05:15:24;101918.81;;;23.30;47.52
61287;BME280;56412;53.148;8.204;2022-08-25T05:18:08;101922.00;;;23.33;47.20
61287;BME280;56412;53.148;8.204;2022-08-25T05:20:36;101910.84;;;23.40;47.31
61287;BME280;56412;53.148;8.204;2022-08-25T05:23:02;101913.06;;;23.44;47.27
61287;BME280;56412;53.148;8.204;2022-08-25T05:25:28;101911.91;;;23.56;47.06
61287;BME280;56412;53.148;8.204;2022-08-25T05:27:53;101904.22;;;23.73;47.03
61287;BME280;56412;53.148;8.204;2022-08-25T05:30:18;101905.91;;;23.74;47.05
61287;BME280;56412;53.148;8.204;2022-08-25T05:32:44;101904.06;;;23.65;47.41
61287;BME280;56412;53.148;8.204;2022-08-25T05:35:09;101904.94;;;23.65;47.33
61287;BME280;56412;53.148;8.204;2022-08-25T05:37:34;101907.56;;;23.65;47.52
61287;BME280;56412;53.148;8.204;2022-08-25T05:40:01;101909.94;;;23.68;47.57
61287;BME280;56412;53.148;8.204;2022-08-25T05:42:27;101910.50;;;23.72;47.43
61287;BME280;56412;53.148;8.204;2022-08-25T05:44:53;101903.91;;;23.76;47.68
61287;BME280;56412;53.148;8.204;2022-08-25T05:47:19;101901.28;;;23.76;48.00
61287;BME280;56412;53.148;8.204;2022-08-25T05:49:45;101905.16;;;23.82;47.81
61287;BME280;56412;53.148;8.204;2022-08-25T05:52:10;101897.75;;;23.85;47.67
61287;BME280;56412;53.148;8.204;2022-08-25T05:54:36;101907.91;;;23.90;48.02
61287;BME280;56412;53.148;8.204;2022-08-25T05:57:01;101908.00;;;23.98;47.72
61287;BME280;56412;53.148;8.204;2022-08-25T05:59:26;101906.41;;;24.05;47.94
61287;BME280;56412;53.148;8.204;2022-08-25T06:01:51;101908.34;;;24.13;47.64
61287;BME280;56412;53.148;8.204;2022-08-25T06:04:35;101908.88;;;24.16;47.74
61287;BME280;56412;53.148;8.204;2022-08-25T06:07:01;101910.91;;;24.22;47.95
61287;BME280;56412;53.148;8.204;2022-08-25T06:09:26;101919.84;;;24.21;48.01
61287;BME280;56412;53.148;8.204;2022-08-25T06:11:51;101910.72;;;24.34;48.09
61287;BME280;56412;53.148;8.204;2022-08-25T06:14:17;101911.75;;;24.41;47.66
61287;BME280;56412;53.148;8.204;2022-08-25T06:16:44;101910.22;;;24.48;47.79
61287;BME280;56412;53.148;8.204;2022-08-25T06:19:09;101906.97;;;24.54;47.64
61287;BME280;56412;53.148;8.204;2022-08-25T06:21:35;101911.34;;;24.63;47.91
61287;BME280;56412;53.148;8.204;2022-08-25T06:24:03;101902.34;;;24.74;47.83
61287;BME280;56412;53.148;8.204;2022-08-25T06:26:29;101904.22;;;24.82;47.99
61287;BME280;56412;53.148;8.204;2022-08-25T06:28:54;101899.97;;;24.89;47.86
61287;BME280;56412;53.148;8.204;2022-08-25T06:31:20;101906.69;;;25.01;47.84
61287;BME280;56412;53.148;8.204;2022-08-25T06:33:46;101904.34;;;24.98;47.90
61287;BME280;56412;53.148;8.204;2022-08-25T06:36:12;101905.56;;;25.04;47.63
61287;BME280;56412;53.148;8.204;2022-08-25T06:38:37;101896.66;;;25.13;47.81
61287;BME280;56412;53.148;8.204;2022-08-25T06:41:03;101901.75;;;25.24;47.33
61287;BME280;56412;53.148;8.204;2022-08-25T06:43:30;101904.16;;;25.35;47.36
61287;BME280;56412;53.148;8.204;2022-08-25T06:45:57;101909.34;;;25.45;47.35
61287;BME280;56412;53.148;8.204;2022-08-25T06:48:22;101898.59;;;25.55;47.26
61287;BME280;56412;53.148;8.204;2022-08-25T06:50:48;101904.63;;;25.65;47.12
61287;BME280;56412;53.148;8.204;2022-08-25T06:53:13;101896.59;;;25.83;47.13
61287;BME280;56412;53.148;8.204;2022-08-25T06:55:38;101898.97;;;25.94;46.59
61287;BME280;56412;53.148;8.204;2022-08-25T06:58:04;101899.66;;;26.04;46.68
61287;BME280;56412;53.148;8.204;2022-08-25T07:00:30;101907.47;;;26.14;46.37
61287;BME280;56412;53.148;8.204;2022-08-25T07:02:56;101912.97;;;26.29;46.05
61287;BME280;56412;53.148;8.204;2022-08-25T07:05:22;101903.31;;;26.12;46.66
61287;BME280;56412;53.148;8.204;2022-08-25T07:07:48;101896.75;;;26.40;46.24
61287;BME280;56412;53.148;8.204;2022-08-25T07:10:14;101896.13;;;26.55;45.95
61287;BME280;56412;53.148;8.204;2022-08-25T07:12:40;101893.13;;;26.66;46.00
61287;BME280;56412;53.148;8.204;2022-08-25T07:15:05;101888.50;;;26.68;45.75
61287;BME280;56412;53.148;8.204;2022-08-25T07:17:30;101891.31;;;26.75;45.76
61287;BME280;56412;53.148;8.204;2022-08-25T07:19:56;101889.47;;;26.83;45.43
61287;BME280;56412;53.148;8.204;2022-08-25T07:22:21;101893.59;;;26.94;45.77
61287;BME280;56412;53.148;8.204;2022-08-25T07:24:47;101891.28;;;26.99;45.49
61287;BME280;56412;53.148;8.204;2022-08-25T07:27:12;101895.81;;;27.15;45.33
61287;BME280;56412;53.148;8.204;2022-08-25T07:29:38;101891.94;;;27.26;45.30
61287;BME280;56412;53.148;8.204;2022-08-25T07:32:04;101888.75;;;27.38;44.83
61287;BME280;56412;53.148;8.204;2022-08-25T07:34:30;101888.53;;;27.56;44.86
61287;BME280;56412;53.148;8.204;2022-08-25T07:37:14;101893.28;;;27.69;44.74
61287;BME280;56412;53.148;8.204;2022-08-25T07:39:39;101891.78;;;27.83;44.05
61287;BME280;56412;53.148;8.204;2022-08-25T07:42:05;101890.72;;;27.92;43.87
61287;BME280;56412;53.148;8.204;2022-08-25T07:44:30;101894.53;;;27.98;43.76
61287;BME280;56412;53.148;8.204;2022-08-25T07:46:55;101900.44;;;28.08;43.98
61287;BME280;56412;53.148;8.204;2022-08-25T07:49:21;101903.41;;;28.13;44.04
61287;BME280;56412;53.148;8.204;2022-08-25T07:51:47;101905.81;;;28.31;43.47
61287;BME280;56412;53.148;8.204;2022-08-25T07:54:13;101911.22;;;28.46;43.61
61287;BME280;56412;53.148;8.204;2022-08-25T07:56:39;101905.28;;;28.59;43.13
61287;BME280;56412;53.148;8.204;2022-08-25T07:59:06;101900.91;;;28.66;42.88
61287;BME280;56412;53.148;8.204;2022-08-25T08:01:32;101905.34;;;28.73;42.96
61287;BME280;56412;53.148;8.204;2022-08-25T08:03:57;101898.59;;;28.86;42.48
61287;BME280;56412;53.148;8.204;2022-08-25T08:06:23;101901.44;;;28.99;42.75
61287;BME280;56412;53.148;8.204;2022-08-25T08:08:49;101902.88;;;29.10;42.67
61287;BME280;56412;53.148;8.204;2022-08-25T08:11:17;101902.69;;;29.26;42.10
61287;BME280;56412;53.148;8.204;2022-08-25T08:13:45;101894.44;;;29.36;41.75
61287;BME280;56412;53.148;8.204;2022-08-25T08:16:12;101895.72;;;29.40;41.65
61287;BME280;56412;53.148;8.204;2022-08-25T08:18:38;101896.00;;;29.45;41.33
61287;BME280;56412;53.148;8.204;2022-08-25T08:21:05;101895.16;;;29.59;41.25
61287;BME280;56412;53.148;8.204;2022-08-25T08:23:36;101898.38;;;29.70;41.01
61287;BME280;56412;53.148;8.204;2022-08-25T08:26:01;101889.91;;;29.81;40.49
61287;BME280;56412;53.148;8.204;2022-08-25T08:28:27;101888.59;;;29.92;40.59
61287;BME280;56412;53.148;8.204;2022-08-25T08:30:52;101887.56;;;29.93;40.32
61287;BME280;56412;53.148;8.204;2022-08-25T08:33:18;101882.94;;;30.01;40.06
61287;BME280;56412;53.148;8.204;2022-08-25T08:35:43;101889.38;;;30.07;39.85
61287;BME280;56412;53.148;8.204;2022-08-25T08:38:08;101883.72;;;30.17;39.80
61287;BME280;56412;53.148;8.204;2022-08-25T08:40:38;101879.75;;;30.27;39.58
61287;BME280;56412;53.148;8.204;2022-08-25T08:43:31;101877.78;;;30.36;38.92
61287;BME280;56412;53.148;8.204;2022-08-25T08:45:57;101885.34;;;30.54;38.93
61287;BME280;56412;53.148;8.204;2022-08-25T08:48:34;101874.31;;;30.64;38.50
61287;BME280;56412;53.148;8.204;2022-08-25T08:53:42;101879.47;;;30.65;38.77
61287;BME280;56412;53.148;8.204;2022-08-25T08:56:11;101879.59;;;30.78;38.44
61287;BME280;56412;53.148;8.204;2022-08-25T09:01:43;101868.88;;;30.78;37.59
61287;BME280;56412;53.148;8.204;2022-08-25T09:04:14;101864.50;;;30.99;37.99
61287;BME280;56412;53.148;8.204;2022-08-25T09:06:46;101865.19;;;31.14;37.47
61287;BME280;56412;53.148;8.204;2022-08-25T09:09:17;101861.56;;;31.29;37.04
61287;BME280;56412;53.148;8.204;2022-08-25T09:11:58;101850.53;;;31.38;36.75
61287;BME280;56412;53.148;8.204;2022-08-25T09:17:41;101854.47;;;31.36;36.30
61287;BME280;56412;53.148;8.204;2022-08-25T09:29:01;101849.22;;;31.69;35.82
61287;BME280;56412;53.148;8.204;2022-08-25T09:31:35;101852.94;;;31.75;35.75
61287;BME280;56412;53.148;8.204;2022-08-25T09:34:03;101844.28;;;31.79;35.45
61287;BME280;56412;53.148;8.204;2022-08-25T09:36:35;101850.53;;;31.93;34.96
61287;BME280;56412;53.148;8.204;2022-08-25T09:39:02;101844.75;;;31.89;34.76
61287;BME280;56412;53.148;8.204;2022-08-25T09:44:05;101839.22;;;31.98;35.31
61287;BME280;56412;53.148;8.204;2022-08-25T09:46:42;101843.38;;;32.13;34.56
61287;BME280;56412;53.148;8.204;2022-08-25T09:49:42;101837.00;;;32.21;34.30
61287;BME280;56412;53.148;8.204;2022-08-25T09:52:29;101819.88;;;32.16;34.52
61287;BME280;56412;53.148;8.204;2022-08-25T09:55:23;101816.75;;;32.32;34.41
61287;BME280;56412;53.148;8.204;2022-08-25T09:57:55;101819.69;;;32.50;34.00
61287;BME280;56412;53.148;8.204;2022-08-25T10:05:31;101786.41;;;32.78;33.08
61287;BME280;56412;53.148;8.204;2022-08-25T10:08:03;101785.56;;;32.91;32.92
61287;BME280;56412;53.148;8.204;2022-08-25T10:10:45;101773.16;;;32.96;33.10
61287;BME280;56412;53.148;8.204;2022-08-25T10:13:19;101776.84;;;33.15;32.31
61287;BME280;56412;53.148;8.204;2022-08-25T10:15:45;101770.47;;;33.10;32.46
61287;BME280;56412;53.148;8.204;2022-08-25T10:20:39;101765.34;;;33.40;31.61
61287;BME280;56412;53.148;8.204;2022-08-25T10:23:12;101766.75;;;33.49;31.73
61287;BME280;56412;53.148;8.204;2022-08-25T10:25:40;101764.78;;;33.69;30.90
61287;BME280;56412;53.148;8.204;2022-08-25T10:33:53;101755.78;;;34.39;29.25
61287;BME280;56412;53.148;8.204;2022-08-25T10:36:38;101758.56;;;34.88;29.59
61287;BME280;56412;53.148;8.204;2022-08-25T10:40:02;101754.88;;;35.91;27.58
61287;BME280;56412;53.148;8.204;2022-08-25T10:42:20;101739.16;;;37.68;24.92
61287;BME280;56412;53.148;8.204;2022-08-25T10:44:59;101742.19;;;38.61;23.89
61287;BME280;56412;53.148;8.204;2022-08-25T10:50:54;101732.16;;;40.39;22.00
61287;BME280;56412;53.148;8.204;2022-08-25T10:56:21;101726.22;;;41.51;20.22
61287;BME280;56412;53.148;8.204;2022-08-25T10:59:11;101725.84;;;42.25;19.64
61287;BME280;56412;53.148;8.204;2022-08-25T11:02:00;101715.59;;;41.91;19.38
61287;BME280;56412;53.148;8.204;2022-08-25T11:04:49;101714.94;;;42.40;18.53
61287;BME280;56412;53.148;8.204;2022-08-25T11:07:28;101707.09;;;42.13;19.14
61287;BME280;56412;53.148;8.204;2022-08-25T11:10:02;101704.53;;;42.47;18.36
61287;BME280;56412;53.148;8.204;2022-08-25T11:12:43;101696.25;;;42.73;18.42
61287;BME280;56412;53.148;8.204;2022-08-25T11:15:16;101693.75;;;42.81;18.46
61287;BME280;56412;53.148;8.204;2022-08-25T11:20:30;101702.91;;;43.35;17.63
61287;BME280;56412;53.148;8.204;2022-08-25T11:23:36;101692.81;;;42.96;17.76
61287;BME280;56412;53.148;8.204;2022-08-25T11:26:09;101689.38;;;43.25;17.36
61287;BME280;56412;53.148;8.204;2022-08-25T11:28:47;101684.84;;;43.05;17.24
61287;BME280;56412;53.148;8.204;2022-08-25T11:31:21;101684.97;;;43.29;17.37
61287;BME280;56412;53.148;8.204;2022-08-25T11:33:48;101681.91;;;43.65;16.87
61287;BME280;56412;53.148;8.204;2022-08-25T11:41:45;101670.56;;;44.67;15.81
61287;BME280;56412;53.148;8.204;2022-08-25T11:49:48;101662.19;;;42.15;17.52
61287;BME280;56412;53.148;8.204;2022-08-25T11:55:11;101658.81;;;42.88;16.94
61287;BME280;56412;53.148;8.204;2022-08-25T11:57:39;101664.56;;;43.50;16.54
61287;BME280;56412;53.148;8.204;2022-08-25T12:00:08;101663.75;;;42.86;16.89
61287;BME280;56412;53.148;8.204;2022-08-25T12:02:43;101640.53;;;41.69;18.26
61287;BME280;56412;53.148;8.204;2022-08-25T12:11:21;101654.22;;;43.47;16.79
61287;BME280;56412;53.148;8.204;2022-08-25T12:16:03;101646.38;;;43.99;15.85
61287;BME280;56412;53.148;8.204;2022-08-25T12:26:10;101645.41;;;42.48;17.07
61287;BME280;56412;53.148;8.204;2022-08-25T12:31:17;101634.09;;;42.25;17.82
61287;BME280;56412;53.148;8.204;2022-08-25T12:33:56;101632.53;;;43.66;16.29
61287;BME280;56412;53.148;8.204;2022-08-25T12:36:28;101624.06;;;44.35;15.48
61287;BME280;56412;53.148;8.204;2022-08-25T12:39:07;101627.97;;;44.66;14.87
61287;BME280;56412;53.148;8.204;2022-08-25T12:41:50;101630.91;;;44.32;15.24
61287;BME280;56412;53.148;8.204;2022-08-25T12:44:36;101626.31;;;44.09;15.72
61287;BME280;56412;53.148;8.204;2022-08-25T12:49:36;101619.47;;;44.30;15.41
61287;BME280;56412;53.148;8.204;2022-08-25T12:57:35;101622.25;;;45.01;14.70
61287;BME280;56412;53.148;8.204;2022-08-25T13:11:56;101614.78;;;45.94;13.78
61287;BME280;56412;53.148;8.204;2022-08-25T13:14:40;101602.00;;;45.62;13.65
61287;BME280;56412;53.148;8.204;2022-08-25T13:17:07;101598.41;;;46.31;13.86
61287;BME280;56412;53.148;8.204;2022-08-25T13:19:33;101595.69;;;46.76;12.85
61287;BME280;56412;53.148;8.204;2022-08-25T13:22:00;101598.56;;;45.98;13.47
61287;BME280;56412;53.148;8.204;2022-08-25T13:24:34;101594.03;;;44.54;15.01
61287;BME280;56412;53.148;8.204;2022-08-25T13:27:06;101589.41;;;44.68;15.03
61287;BME280;56412;53.148;8.204;2022-08-25T13:29:35;101585.41;;;43.80;15.30
61287;BME280;56412;53.148;8.204;2022-08-25T13:32:16;101585.59;;;44.31;15.05
61287;BME280;56412;53.148;8.204;2022-08-25T13:34:50;101588.91;;;43.37;16.00
61287;BME280;56412;53.148;8.204;2022-08-25T13:37:18;101586.84;;;42.50;16.99
61287;BME280;56412;53.148;8.204;2022-08-25T13:40:06;101579.88;;;42.39;16.78
61287;BME280;56412;53.148;8.204;2022-08-25T13:42:44;101573.28;;;41.90;17.53
61287;BME280;56412;53.148;8.204;2022-08-25T13:45:15;101562.66;;;41.84;17.36
61287;BME280;56412;53.148;8.204;2022-08-25T13:47:44;101567.69;;;42.65;17.24
61287;BME280;56412;53.148;8.204;2022-08-25T13:50:16;101560.09;;;44.74;15.63
61287;BME280;56412;53.148;8.204;2022-08-25T13:52:54;101558.91;;;46.32;13.93
61287;BME280;56412;53.148;8.204;2022-08-25T13:55:21;101559.44;;;47.59;12.77
61287;BME280;56412;53.148;8.204;2022-08-25T13:58:12;101553.56;;;48.35;12.39
61287;BME280;56412;53.148;8.204;2022-08-25T14:00:41;101557.75;;;48.06;12.08
61287;BME280;56412;53.148;8.204;2022-08-25T14:03:16;101543.28;;;47.40;12.79
61287;BME280;56412;53.148;8.204;2022-08-25T14:06:07;101541.41;;;48.62;12.33
61287;BME280;56412;53.148;8.204;2022-08-25T14:09:34;101546.88;;;48.71;11.91
61287;BME280;56412;53.148;8.204;2022-08-25T14:11:54;101541.88;;;48.73;12.02
61287;BME280;56412;53.148;8.204;2022-08-25T14:16:49;101533.50;;;49.46;11.27
61287;BME280;56412;53.148;8.204;2022-08-25T14:19:18;101536.25;;;48.60;11.66
61287;BME280;56412;53.148;8.204;2022-08-25T14:21:47;101545.06;;;46.82;13.33
61287;BME280;56412;53.148;8.204;2022-08-25T14:24:16;101535.78;;;45.05;14.46
61287;BME280;56412;53.148;8.204;2022-08-25T14:26:44;101537.31;;;44.46;15.21
61287;BME280;56412;53.148;8.204;2022-08-25T14:29:10;101524.13;;;44.34;15.39
61287;BME280;56412;53.148;8.204;2022-08-25T14:31:36;101523.81;;;45.01;15.44
61287;BME280;56412;53.148;8.204;2022-08-25T14:34:09;101511.28;;;45.69;14.14
61287;BME280;56412;53.148;8.204;2022-08-25T14:36:38;101523.56;;;45.16;14.31
61287;BME280;56412;53.148;8.204;2022-08-25T14:39:03;101519.13;;;43.79;15.40
61287;BME280;56412;53.148;8.204;2022-08-25T14:41:30;101515.56;;;42.43;16.85
61287;BME280;56412;53.148;8.204;2022-08-25T14:43:58;101509.19;;;42.18;17.40
61287;BME280;56412;53.148;8.204;2022-08-25T14:46:26;101512.94;;;43.92;15.58
61287;BME280;56412;53.148;8.204;2022-08-25T14:48:53;101505.31;;;45.67;13.85
61287;BME280;56412;53.148;8.204;2022-08-25T14:51:22;101504.44;;;47.24;13.12
61287;BME280;56412;53.148;8.204;2022-08-25T14:53:49;101507.53;;;48.14;12.57
61287;BME280;56412;53.148;8.204;2022-08-25T14:56:17;101494.91;;;48.31;12.16